To NAV CANADA Home Page Login to a new session Search on AWWS site Feedback and Comments Disclaimer Vers la page française équivalente Tips FAQ What's new on the site To the Forecasts and Observations / NOTAM section To "File a Flight Plan" website Publications and other links Update of the User's profile FIC Telephone Numbers My Weather Data Folder Route Weather Data Regional Weather Data Local Weather Data To the Forecasts and Observations / NOTAM section
Request Generated 04/30/2017 at 03:01:43 UTC . Weather information available at that time is displayed.


Go to a specific product

Save this request - Inactive

METAR/TAF

If you find any discrepancies between the coded METAR/TAF and the plain language METAR/TAF please use the coded METAR/TAF. LWIS bulletins are not decoded in plain language.

OTTAWA/GATINEAU/QC    

LWIS CYND 300200Z AUTO 34003KT 05/M05 A3027=

METAR CYND 300100Z 32005KT 290V010 15SM FEW230 06/M05 A3024 RMK CI2 LAST STFD OBS/NEXT 301100 UTC SLP242=
METAR
LOCATION
CYND - OTTAWA/GATINEAU/QC
DATE - TIME
30 APRIL 2017 - 0100 UTC
WIND
320 TRUE @ 5  KNOTS
VARIATION
290 <-> 10  DEG
VISIBILITY
15 STAT.  MILES
RUNWAY VISUAL RANGE
WEATHER
CLOUDINESS
FEW CLOUDS (1/8 - 2/8) 23000  FT
TEMP / DEWPOINT
6 C / -5 C
ALTIMETER
30.24 IN HG
RECENT WEATHER
WIND SHEAR

METAR CYND 300000Z 34010G20KT 15SM FEW045 SCT230 07/M04 A3019 RMK SC1CI3 PRESRR SLP228=
METAR
LOCATION
CYND - OTTAWA/GATINEAU/QC
DATE - TIME
30 APRIL 2017 - 0000 UTC
WIND
340 TRUE @ 10  KNOTS
GUSTS
20 KNOTS
VISIBILITY
15 STAT.  MILES
RUNWAY VISUAL RANGE
WEATHER
CLOUDINESS
FEW CLOUDS (1/8 - 2/8) 4500  FT
SCATTERED CLOUDS (3/8 - 4/8) 23000  FT
TEMP / DEWPOINT
7 C / -4 C
ALTIMETER
30.19 IN HG
RECENT WEATHER
WIND SHEAR

*** REMARK        : Forecast period has ended; this was the last TAF issued
TAF AMD CYND 292117Z 2921/3001 35012G22KT P6SM FEW050 RMK NXT FCST WILL BE ISSUED AT 301245Z=
AMENDED TAF
LOCATION

CYND - OTTAWA/GATINEAU/QC
VALIDITY [UTC]
29 APR - 2117 to
30 APR - 0100
 
TIMES
[UTC]
WIND
[DEGREES TRUE]
VISIBILITY
[STAT. MILES]
WEATHER
CLOUDINESS
[FEET AGL]
 
29 APR - 2100 to
30 APR - 0100
350 @ 12 KNOTS
GUSTS 22 KNOTS
6+
NIL
5000 FEW
REMARKS
THE NEXT FORECAST WILL BE ISSUED AT 1245 UTC ON DAY 30


OTTAWA/MACDONALD-CARTIER INTL/ON    

METAR CYOW 300300Z 35010KT 15SM SKC 05/M05 A3027 RMK SLP254=
METAR
LOCATION
CYOW - OTTAWA/MACDONALD-CARTIER INTL/ON
DATE - TIME
30 APRIL 2017 - 0300 UTC
WIND
350 TRUE @ 10  KNOTS
VISIBILITY
15 STAT.  MILES
RUNWAY VISUAL RANGE
WEATHER
CLOUDINESS
CLEAR SKY
TEMP / DEWPOINT
5 C / -5 C
ALTIMETER
30.27 IN HG
RECENT WEATHER
WIND SHEAR

METAR CYOW 300200Z 33012G19KT 15SM SKC 06/M05 A3026 RMK SLP250=
METAR
LOCATION
CYOW - OTTAWA/MACDONALD-CARTIER INTL/ON
DATE - TIME
30 APRIL 2017 - 0200 UTC
WIND
330 TRUE @ 12  KNOTS
GUSTS
19 KNOTS
VISIBILITY
15 STAT.  MILES
RUNWAY VISUAL RANGE
WEATHER
CLOUDINESS
CLEAR SKY
TEMP / DEWPOINT
6 C / -5 C
ALTIMETER
30.26 IN HG
RECENT WEATHER
WIND SHEAR

METAR CYOW 300100Z 35013G19KT 15SM FEW055 FEW240 06/M05 A3023 RMK SC1CI1 SC TR CI TR SLP242=
METAR
LOCATION
CYOW - OTTAWA/MACDONALD-CARTIER INTL/ON
DATE - TIME
30 APRIL 2017 - 0100 UTC
WIND
350 TRUE @ 13  KNOTS
GUSTS
19 KNOTS
VISIBILITY
15 STAT.  MILES
RUNWAY VISUAL RANGE
WEATHER
CLOUDINESS
FEW CLOUDS (1/8 - 2/8) 5500  FT
FEW CLOUDS (1/8 - 2/8) 24000  FT
TEMP / DEWPOINT
6 C / -5 C
ALTIMETER
30.23 IN HG
RECENT WEATHER
WIND SHEAR

TAF CYOW 300251Z 3003/3024 33009G19KT P6SM SKC FM300600 34008KT P6SM SCT040 SCT150 TEMPO 3006/3012 BKN040 BECMG 3008/3010 02007KT FM301200 04010KT P6SM FEW030 BKN120 FM301600 08008KT P6SM -SHRA OVC080 FM302100 07012KT 5SM -RA BR BKN020 OVC050 FM302300 07012KT 3SM -RA BR FEW008 OVC020 RMK NXT FCST BY 300600Z=
TAF

30 APR 2017 - 0251 UTC
LOCATION

CYOW - OTTAWA/MACDONALD-CARTIER INTL/ON
VALIDITY [UTC]
30 APR - 0251 to
01 MAY - 0000
 
TIMES
[UTC]
WIND
[DEGREES TRUE]
VISIBILITY
[STAT. MILES]
WEATHER
CLOUDINESS
[FEET AGL]
 
30 APR - 0300 to
30 APR - 0600
330 @ 9 KNOTS
GUSTS 19 KNOTS
6+
NIL
CLEAR SKY
 
30 APR - 0600 to
30 APR - 1200
340 @ 8 KNOTS
6+
NIL
4000 SCATTERED
15000 SCATTERED
TEMPORARY CHANGES
30 APR - 0600 to
30 APR - 1200
 
 
 
4000 BROKEN
BECOMING
30 APR - 0800 to
30 APR - 1000
20 @ 7 KNOTS
 
 
 
 
30 APR - 1200 to
30 APR - 1600
40 @ 10 KNOTS
6+
NIL
3000 FEW
12000 BROKEN
 
30 APR - 1600 to
30 APR - 2100
80 @ 8 KNOTS
6+
LIGHT RAIN SHOWER
8000 OVERCAST
 
30 APR - 2100 to
30 APR - 2300
70 @ 12 KNOTS
5
LIGHT RAIN
MIST
2000 BROKEN
5000 OVERCAST
 
30 APR - 2300 to
01 MAY - 0000
70 @ 12 KNOTS
3
LIGHT RAIN
MIST
800 FEW
2000 FEW
2000 OVERCAST
REMARKS
THE NEXT FORECAST WILL BE ISSUED BY 0600 UTC ON DAY 30




GRAPHICAL FA CLOUDS & WEATHER FORECASTS
To the Product Selector
Graphical FA gfacn33      

GRAPHICAL FA ICING, TURBULENCE & FREEZING LEVEL FORECASTS
To the Product Selector
Graphical FA gfacn33      

FDTEXT Low Level FD. Temperatures are not forecast for the 3,000-foot level.
To the Product Selector
STN YOW - OTTAWA. ONT for use 3000 6000 9000 12000 18000
FDCN01 CWAO FCST BASED ON 291200 DATA VALID 291800 17-21 2923 2744+00 2763+00 2774-03 2781-13
FDCN02 CWAO FCST BASED ON 291200 DATA VALID 300000 21-06 3319 3022-02 2938+01 2964-02 2866-10
FDCN03 CWAO FCST BASED ON 291200 DATA VALID 301200 06-17 1015 3611+06 2923+04 2754+00 2656-11



Your time UTC time
Weather data provided by Environment Canada and NAV CANADA